Huvudsida
METAR-TAF:

METAR-TAF

Flygplatser :

Dakar, Senegal

latitud: 14-44N, longitud: 017-30W, höjd: 27 m

Aktuellt väderrapport

Denna rapport gjordes för 28 minuter sedan, klockan 19:00 UTC
Vind 4 kt från nord
Temperatur 26°C
Fuktighet 70%
Tryck 1008 hPa
Sikt: 8000 m

METAR: GOOY 111900Z 36004KT 8000 NSC 26/20 Q1008

Tid: 19:28 (19:28 UTC)

Väderprognos

Denna rapport gjordes för 1 timme och 58 minuter sedan, klockan 17:30 UTC
Prognos gäller från 11 kl. 18 UTC till 12 kl. 24 UTC
Vind 10 kt från nord
Sikt 10 km eller mer
Inga moln under 1 500 m eller inga cumulonimbus

TAF: GOOY 111730Z 1118/1224 36010KT CAVOK

Aktuella väderrapporter och prognoser från 4000 flygplatser (METAR- och TAF-rapporter).

De tillgängliga stationerna syns som gula och röda prickar på kartan.

För musen över prickarna för att se namnen på stationerna.

Klicka sedan för att få väderrapporter och prognoser.

För att ändra kartan: Klicka på de gröna knapparna med ett svart kors på för att zooma in; den gröna knappen med ett streck på för att zooma ut; eller på de gröna pilarna för angränsande kartor.


METAR-TAF: